createdAt,value
2019-02-21T00:00:31.356Z,1015.07
2019-02-21T00:01:31.366Z,1015.09
2019-02-21T00:02:31.384Z,1015.06
2019-02-21T00:03:31.406Z,1015.11
2019-02-21T00:04:31.422Z,1015.13
2019-02-21T00:05:31.437Z,1015.19
2019-02-21T00:06:31.456Z,1015.22
2019-02-21T00:07:31.489Z,1015.21
2019-02-21T00:08:31.498Z,1015.21
2019-02-21T00:09:31.506Z,1015.25
2019-02-21T00:10:31.531Z,1015.25
2019-02-21T00:11:31.553Z,1015.22
2019-02-21T00:12:31.574Z,1015.20
2019-02-21T00:13:31.579Z,1015.23
2019-02-21T00:14:31.616Z,1015.26
2019-02-21T00:15:31.616Z,1015.30
2019-02-21T00:16:31.635Z,1015.32
2019-02-21T00:17:31.663Z,1015.32
2019-02-21T00:18:31.669Z,1015.34
2019-02-21T00:19:31.692Z,1015.37
2019-02-21T00:20:31.708Z,1015.44
2019-02-21T00:21:31.725Z,1015.51
2019-02-21T00:22:31.747Z,1015.53
2019-02-21T00:23:31.759Z,1015.54
2019-02-21T00:24:31.776Z,1015.57
2019-02-21T00:25:31.796Z,1015.59
2019-02-21T00:26:31.842Z,1015.59
2019-02-21T00:27:31.834Z,1015.58
2019-02-21T00:28:31.856Z,1015.53
2019-02-21T00:29:31.868Z,1015.55
2019-02-21T00:30:35.161Z,1015.51
2019-02-21T00:31:31.904Z,1015.50
2019-02-21T00:32:31.932Z,1015.46
2019-02-21T00:33:31.939Z,1015.49
2019-02-21T00:34:31.957Z,1015.47
2019-02-21T00:35:31.984Z,1015.49
2019-02-21T00:36:32.002Z,1015.52
2019-02-21T00:37:32.031Z,1015.54
2019-02-21T00:38:32.034Z,1015.55
2019-02-21T00:39:32.053Z,1015.59
2019-02-21T00:40:32.073Z,1015.57
2019-02-21T00:41:32.088Z,1015.62
2019-02-21T00:42:32.111Z,1015.61
2019-02-21T00:43:32.121Z,1015.62
2019-02-21T00:44:32.148Z,1015.63
2019-02-21T00:45:32.165Z,1015.64
2019-02-21T00:46:32.177Z,1015.64
2019-02-21T00:47:32.198Z,1015.66
2019-02-21T00:48:32.219Z,1015.70
2019-02-21T00:49:32.231Z,1015.67
2019-02-21T00:50:32.255Z,1015.70
2019-02-21T00:51:32.278Z,1015.69
2019-02-21T00:52:32.286Z,1015.69
2019-02-21T00:53:32.303Z,1015.69
2019-02-21T00:54:32.323Z,1015.68
2019-02-21T00:55:32.347Z,1015.72
2019-02-21T00:56:32.358Z,1015.73
2019-02-21T00:57:32.391Z,1015.74
2019-02-21T00:58:32.398Z,1015.72
2019-02-21T00:59:32.429Z,1015.76
2019-02-21T01:00:32.440Z,1015.75
2019-02-21T01:01:32.465Z,1015.74
2019-02-21T01:02:32.470Z,1015.79
2019-02-21T01:03:32.489Z,1015.78
2019-02-21T01:04:32.519Z,1015.75
2019-02-21T01:05:32.531Z,1015.78
2019-02-21T01:06:32.557Z,1015.79
2019-02-21T01:07:32.562Z,1015.86
2019-02-21T01:08:32.645Z,1015.81
2019-02-21T01:09:32.606Z,1015.77
2019-02-21T01:10:32.618Z,1015.82
2019-02-21T01:11:32.644Z,1015.79
2019-02-21T01:12:32.661Z,1015.81
2019-02-21T01:13:32.684Z,1015.83
2019-02-21T01:14:32.691Z,1015.84
2019-02-21T01:15:32.713Z,1015.92
2019-02-21T01:16:32.735Z,1015.94
2019-02-21T01:17:32.750Z,1015.97
2019-02-21T01:18:32.771Z,1015.99
2019-02-21T01:19:32.784Z,1016.05
2019-02-21T01:20:32.803Z,1016.02
2019-02-21T01:21:32.820Z,1016.03
2019-02-21T01:22:32.841Z,1016.09
2019-02-21T01:23:32.869Z,1016.08
2019-02-21T01:24:32.881Z,1016.08
2019-02-21T01:25:32.894Z,1016.11
2019-02-21T01:26:32.918Z,1016.12
2019-02-21T01:27:32.940Z,1016.15
2019-02-21T01:28:33.061Z,1016.16
2019-02-21T01:29:32.968Z,1016.13
2019-02-21T01:30:32.993Z,1016.16
2019-02-21T01:31:33.017Z,1016.18
2019-02-21T01:32:33.027Z,1016.21
2019-02-21T01:33:33.050Z,1016.20
2019-02-21T01:34:33.064Z,1016.19
2019-02-21T01:35:33.081Z,1016.18
2019-02-21T01:36:33.102Z,1016.16
2019-02-21T01:37:33.117Z,1016.16
2019-02-21T01:38:33.143Z,1016.16
2019-02-21T01:39:33.158Z,1016.16
2019-02-21T01:40:33.174Z,1016.18
2019-02-21T01:41:33.199Z,1016.16
2019-02-21T01:42:33.211Z,1016.19
2019-02-21T01:43:33.230Z,1016.18
2019-02-21T01:44:33.255Z,1016.19
2019-02-21T01:45:33.268Z,1016.19
2019-02-21T01:46:33.286Z,1016.17
2019-02-21T01:47:33.306Z,1016.20
2019-02-21T01:48:33.323Z,1016.17
2019-02-21T01:49:33.355Z,1016.21
2019-02-21T01:50:33.362Z,1016.17
2019-02-21T01:51:33.383Z,1016.16
2019-02-21T01:52:33.401Z,1016.19
2019-02-21T01:53:33.416Z,1016.16
2019-02-21T01:54:33.443Z,1016.21
2019-02-21T01:55:33.458Z,1016.18
2019-02-21T01:56:33.472Z,1016.23
2019-02-21T01:57:33.491Z,1016.21
2019-02-21T01:58:33.514Z,1016.21
2019-02-21T01:59:33.530Z,1016.25
2019-02-21T02:00:33.551Z,1016.23
2019-02-21T02:01:33.568Z,1016.20
2019-02-21T02:02:33.585Z,1016.21
2019-02-21T02:03:33.604Z,1016.23
2019-02-21T02:04:33.622Z,1016.22
2019-02-21T02:05:33.653Z,1016.21
2019-02-21T02:06:33.671Z,1016.20
2019-02-21T02:07:33.684Z,1016.17
2019-02-21T02:08:33.699Z,1016.21
2019-02-21T02:09:33.717Z,1016.22
2019-02-21T02:10:33.739Z,1016.26
2019-02-21T02:11:33.756Z,1016.29
2019-02-21T02:12:33.774Z,1016.30
2019-02-21T02:13:33.803Z,1016.30
2019-02-21T02:14:33.811Z,1016.31
2019-02-21T02:15:33.832Z,1016.35
2019-02-21T02:16:33.851Z,1016.31
2019-02-21T02:17:33.869Z,1016.29
2019-02-21T02:18:33.890Z,1016.27
2019-02-21T02:19:33.916Z,1016.22
2019-02-21T02:20:33.925Z,1016.22
2019-02-21T02:21:33.943Z,1016.22
2019-02-21T02:22:33.970Z,1016.20
2019-02-21T02:23:33.982Z,1016.20
2019-02-21T02:24:34.003Z,1016.23
2019-02-21T02:25:34.019Z,1016.24
2019-02-21T02:26:34.041Z,1016.24
2019-02-21T02:27:34.069Z,1016.20
2019-02-21T02:28:34.126Z,1016.23
2019-02-21T02:29:34.113Z,1016.27
2019-02-21T02:30:34.124Z,1016.24
2019-02-21T02:31:34.134Z,1016.25
2019-02-21T02:32:34.152Z,1016.24
2019-02-21T02:33:34.180Z,1016.25
2019-02-21T02:34:34.199Z,1016.27
2019-02-21T02:35:34.216Z,1016.32
2019-02-21T02:36:34.236Z,1016.34
2019-02-21T02:37:34.247Z,1016.32
2019-02-21T02:38:34.267Z,1016.33
2019-02-21T02:39:34.288Z,1016.32
2019-02-21T02:40:34.307Z,1016.35
2019-02-21T02:41:34.325Z,1016.33
2019-02-21T02:42:34.352Z,1016.36
2019-02-21T02:43:34.364Z,1016.31
2019-02-21T02:44:34.386Z,1016.28
2019-02-21T02:45:34.405Z,1016.27
2019-02-21T02:46:34.429Z,1016.32
2019-02-21T02:47:34.443Z,1016.30
2019-02-21T02:48:34.460Z,1016.31
2019-02-21T02:49:34.489Z,1016.26
2019-02-21T02:50:34.508Z,1016.27
2019-02-21T02:51:34.526Z,1016.24
2019-02-21T02:52:34.540Z,1016.25
2019-02-21T02:53:34.556Z,1016.22
2019-02-21T02:54:34.580Z,1016.21
2019-02-21T02:55:34.604Z,1016.18
2019-02-21T02:56:34.615Z,1016.22
2019-02-21T02:57:34.640Z,1016.17
2019-02-21T02:58:34.656Z,1016.17
2019-02-21T02:59:40.955Z,1016.14
2019-02-21T03:00:34.705Z,1016.14
2019-02-21T03:01:35.307Z,1016.15
2019-02-21T03:02:34.730Z,1016.18
2019-02-21T03:03:34.765Z,1016.15
2019-02-21T03:04:34.821Z,1016.17
2019-02-21T03:05:34.786Z,1016.20
2019-02-21T03:06:34.806Z,1016.21
2019-02-21T03:07:34.827Z,1016.12
2019-02-21T03:08:34.846Z,1016.12
2019-02-21T03:09:34.867Z,1016.14
2019-02-21T03:10:34.892Z,1016.07
2019-02-21T03:11:34.916Z,1016.09
2019-02-21T03:12:34.921Z,1016.10
2019-02-21T03:13:34.940Z,1016.08
2019-02-21T03:14:34.961Z,1016.07
2019-02-21T03:15:34.986Z,1016.05
2019-02-21T03:16:35.001Z,1016.02
2019-02-21T03:17:35.022Z,1016.01
2019-02-21T03:18:35.039Z,1016.04
2019-02-21T03:19:35.060Z,1015.99
2019-02-21T03:20:35.080Z,1016.02
2019-02-21T03:21:35.101Z,1015.90
2019-02-21T03:22:35.167Z,1015.90
2019-02-21T03:23:35.141Z,1015.84
2019-02-21T03:24:35.193Z,1015.86
2019-02-21T03:25:35.179Z,1015.84
2019-02-21T03:26:35.202Z,1015.86
2019-02-21T03:27:35.262Z,1015.84
2019-02-21T03:28:35.233Z,1015.90
2019-02-21T03:29:35.260Z,1015.86
2019-02-21T03:30:35.275Z,1015.85
2019-02-21T03:31:52.604Z,1015.78
2019-02-21T03:32:35.320Z,1015.77
2019-02-21T03:33:35.333Z,1015.77
2019-02-21T03:34:35.401Z,1015.70
2019-02-21T03:35:35.372Z,1015.70
2019-02-21T03:36:35.406Z,1015.69
2019-02-21T03:37:35.430Z,1015.69
2019-02-21T03:38:35.877Z,1015.73
2019-02-21T03:39:35.451Z,1015.66
2019-02-21T03:40:35.473Z,1015.63
2019-02-21T03:41:35.489Z,1015.62
2019-02-21T03:42:35.523Z,1015.60
2019-02-21T03:43:35.533Z,1015.60
2019-02-21T03:44:35.551Z,1015.60
2019-02-21T03:45:35.582Z,1015.61
2019-02-21T03:46:35.587Z,1015.58
2019-02-21T03:47:35.615Z,1015.56
2019-02-21T03:48:35.629Z,1015.50
2019-02-21T03:49:35.645Z,1015.44
2019-02-21T03:50:35.668Z,1015.44
2019-02-21T03:51:35.688Z,1015.42
2019-02-21T03:52:35.712Z,1015.42
2019-02-21T03:53:35.726Z,1015.37
2019-02-21T03:54:35.747Z,1015.37
2019-02-21T03:55:35.767Z,1015.33
2019-02-21T03:56:35.785Z,1015.28
2019-02-21T03:57:35.813Z,1015.32
2019-02-21T03:58:35.911Z,1015.34
2019-02-21T03:59:35.848Z,1015.31
2019-02-21T04:00:35.871Z,1015.31
2019-02-21T04:01:35.885Z,1015.28
2019-02-21T04:02:35.907Z,1015.21
2019-02-21T04:03:35.925Z,1015.20
2019-02-21T04:04:35.948Z,1015.20
2019-02-21T04:05:35.965Z,1015.21
2019-02-21T04:06:35.990Z,1015.21
2019-02-21T04:07:36.020Z,1015.16
2019-02-21T04:08:36.025Z,1015.18
2019-02-21T04:09:36.043Z,1015.17
2019-02-21T04:10:36.075Z,1015.17
2019-02-21T04:11:36.094Z,1015.12
2019-02-21T04:12:36.103Z,1015.12
2019-02-21T04:13:36.133Z,1015.09
2019-02-21T04:14:36.147Z,1015.07
2019-02-21T04:15:36.170Z,1015.14
2019-02-21T04:16:36.194Z,1015.09
2019-02-21T04:17:36.204Z,1015.07
2019-02-21T04:18:36.234Z,1015.07
2019-02-21T04:19:36.244Z,1015.04
2019-02-21T04:20:36.266Z,1015.05
2019-02-21T04:21:36.283Z,1015.04
2019-02-21T04:22:36.307Z,1015.04
2019-02-21T04:23:36.330Z,1014.98
2019-02-21T04:24:36.369Z,1015.02
2019-02-21T04:25:36.375Z,1015.00
2019-02-21T04:26:36.395Z,1015.00
2019-02-21T04:27:36.409Z,1015.00
2019-02-21T04:28:36.428Z,1014.96
2019-02-21T04:29:36.453Z,1014.93
2019-02-21T04:30:36.472Z,1014.90
2019-02-21T04:31:36.493Z,1014.88
2019-02-21T04:32:36.508Z,1014.84
2019-02-21T04:33:36.530Z,1014.84
2019-02-21T04:34:36.553Z,1014.84
2019-02-21T04:35:36.568Z,1014.82
2019-02-21T04:36:36.586Z,1014.81
2019-02-21T04:37:36.608Z,1014.77
2019-02-21T04:38:36.630Z,1014.72
2019-02-21T04:39:36.653Z,1014.74
2019-02-21T04:40:36.680Z,1014.74
2019-02-21T04:41:36.692Z,1014.73
2019-02-21T04:42:36.773Z,1014.74
2019-02-21T04:43:36.734Z,1014.73
2019-02-21T04:44:36.750Z,1014.72
2019-02-21T04:45:36.784Z,1014.76
2019-02-21T04:46:36.792Z,1014.74
2019-02-21T04:47:36.815Z,1014.74
2019-02-21T04:48:36.839Z,1014.72
2019-02-21T04:49:36.853Z,1014.69
2019-02-21T04:50:36.870Z,1014.65
2019-02-21T04:51:36.894Z,1014.65
2019-02-21T04:52:36.916Z,1014.61
2019-02-21T04:53:36.942Z,1014.59
2019-02-21T04:54:36.957Z,1014.49
2019-02-21T04:55:36.971Z,1014.49
2019-02-21T04:56:36.999Z,1014.44
2019-02-21T04:57:37.023Z,1014.42
2019-02-21T04:58:37.032Z,1014.43
2019-02-21T04:59:37.055Z,1014.39
2019-02-21T05:00:37.075Z,1014.37
2019-02-21T05:01:37.097Z,1014.36
2019-02-21T05:02:37.121Z,1014.34
2019-02-21T05:03:37.139Z,1014.30
2019-02-21T05:04:37.161Z,1014.24
2019-02-21T05:05:37.177Z,1014.24
2019-02-21T05:06:37.201Z,1014.21
2019-02-21T05:07:37.235Z,1014.14
2019-02-21T05:08:37.245Z,1014.15
2019-02-21T05:09:37.260Z,1014.18
2019-02-21T05:10:37.290Z,1014.16
2019-02-21T05:11:37.304Z,1014.12
2019-02-21T05:12:37.328Z,1014.15
2019-02-21T05:13:37.345Z,1014.13
2019-02-21T05:14:37.365Z,1014.09
2019-02-21T05:15:37.390Z,1014.06
2019-02-21T05:16:37.403Z,1014.03
2019-02-21T05:17:37.425Z,1014.02
2019-02-21T05:18:37.467Z,1013.98
2019-02-21T05:19:37.466Z,1013.94
2019-02-21T05:20:37.485Z,1013.96
2019-02-21T05:21:37.508Z,1013.92
2019-02-21T05:22:37.526Z,1013.89
2019-02-21T05:23:37.567Z,1013.86
2019-02-21T05:24:37.567Z,1013.88
2019-02-21T05:25:37.590Z,1013.82
2019-02-21T05:26:37.632Z,1013.85
2019-02-21T05:27:37.646Z,1013.79
2019-02-21T05:28:37.664Z,1013.78
2019-02-21T05:29:37.681Z,1013.73
2019-02-21T05:30:37.692Z,1013.72
2019-02-21T05:31:37.712Z,1013.68
2019-02-21T05:32:40.928Z,1013.70
2019-02-21T05:33:37.759Z,1013.65
2019-02-21T05:34:37.772Z,1013.63
2019-02-21T05:35:37.800Z,1013.60
2019-02-21T05:36:37.818Z,1013.60
2019-02-21T05:37:37.836Z,1013.55
2019-02-21T05:38:37.860Z,1013.57
2019-02-21T05:39:37.879Z,1013.50
2019-02-21T05:40:37.903Z,1013.51
2019-02-21T05:41:38.000Z,1013.52
2019-02-21T05:42:37.939Z,1013.48
2019-02-21T05:43:37.996Z,1013.42
2019-02-21T05:44:37.991Z,1013.42
2019-02-21T05:45:38.057Z,1013.38
2019-02-21T05:46:38.025Z,1013.33
2019-02-21T05:47:38.044Z,1013.31
2019-02-21T05:48:40.183Z,1013.33
2019-02-21T05:49:38.097Z,1013.29
2019-02-21T05:50:38.104Z,1013.26
2019-02-21T05:51:38.123Z,1013.24
2019-02-21T05:52:38.150Z,1013.20
2019-02-21T05:53:38.169Z,1013.18
2019-02-21T05:54:38.196Z,1013.16
2019-02-21T05:55:38.210Z,1013.15
2019-02-21T05:56:38.228Z,1013.11
2019-02-21T05:57:38.255Z,1013.09
2019-02-21T05:58:38.269Z,1013.07
2019-02-21T05:59:38.292Z,1013.08
2019-02-21T06:00:38.325Z,1013.07
2019-02-21T06:01:38.330Z,1013.07
2019-02-21T06:02:38.352Z,1013.05
2019-02-21T06:03:38.375Z,1013.01
2019-02-21T06:04:38.401Z,1013.01
2019-02-21T06:05:38.417Z,1012.99
2019-02-21T06:06:38.438Z,1012.94
2019-02-21T06:07:38.466Z,1012.99
2019-02-21T06:08:38.477Z,1012.98
2019-02-21T06:09:38.500Z,1013.01
2019-02-21T06:10:38.522Z,1012.97
2019-02-21T06:11:38.539Z,1012.93
2019-02-21T06:12:38.562Z,1012.89
2019-02-21T06:13:38.587Z,1012.88
2019-02-21T06:14:38.600Z,1012.87
2019-02-21T06:15:38.628Z,1012.84
2019-02-21T06:16:38.642Z,1012.85
2019-02-21T06:17:38.670Z,1012.82
2019-02-21T06:18:38.691Z,1012.84
2019-02-21T06:19:38.708Z,1012.74
2019-02-21T06:20:38.729Z,1012.82
2019-02-21T06:21:38.744Z,1012.80
2019-02-21T06:22:38.770Z,1012.72
2019-02-21T06:23:39.441Z,1012.74
2019-02-21T06:24:38.809Z,1012.67
2019-02-21T06:25:50.508Z,1012.72
2019-02-21T06:26:39.617Z,1012.69
2019-02-21T06:27:38.879Z,1012.70
2019-02-21T06:28:38.892Z,1012.66
2019-02-21T06:29:38.911Z,1012.64
2019-02-21T06:30:38.939Z,1012.61
2019-02-21T06:31:38.955Z,1012.58
2019-02-21T06:32:40.818Z,1012.66
2019-02-21T06:33:38.999Z,1012.64
2019-02-21T06:34:39.030Z,1012.59
2019-02-21T06:35:39.047Z,1012.52
2019-02-21T06:36:39.065Z,1012.50
2019-02-21T06:37:39.087Z,1012.51
2019-02-21T06:38:39.103Z,1012.46
2019-02-21T06:39:39.129Z,1012.53
2019-02-21T06:40:39.152Z,1012.50
2019-02-21T06:41:39.162Z,1012.52
2019-02-21T06:42:39.191Z,1012.50
2019-02-21T06:43:39.208Z,1012.49
2019-02-21T06:44:39.268Z,1012.46
2019-02-21T06:45:39.246Z,1012.39
2019-02-21T06:46:39.268Z,1012.40
2019-02-21T06:47:39.296Z,1012.41
2019-02-21T06:48:39.320Z,1012.34
2019-02-21T06:49:39.329Z,1012.33
2019-02-21T06:50:39.349Z,1012.31
2019-02-21T06:51:39.373Z,1012.32
2019-02-21T06:52:40.640Z,1012.31
2019-02-21T06:53:39.414Z,1012.27
2019-02-21T06:54:39.434Z,1012.29
2019-02-21T06:55:39.455Z,1012.24
2019-02-21T06:56:39.479Z,1012.23
2019-02-21T06:57:39.502Z,1012.20
2019-02-21T06:58:41.999Z,1012.21
2019-02-21T06:59:43.290Z,1012.19
2019-02-21T07:00:39.560Z,1012.18
2019-02-21T07:01:39.589Z,1012.15
2019-02-21T07:02:39.608Z,1012.12
2019-02-21T07:03:39.626Z,1012.11
2019-02-21T07:04:39.643Z,1012.11
2019-02-21T07:05:39.666Z,1012.07
2019-02-21T07:06:39.690Z,1012.09
2019-02-21T07:07:39.720Z,1012.05
2019-02-21T07:08:40.219Z,1012.01
2019-02-21T07:09:39.759Z,1012.03
2019-02-21T07:10:39.773Z,1012.07
2019-02-21T07:11:39.796Z,1012.08
2019-02-21T07:12:39.820Z,1012.05
2019-02-21T07:13:39.894Z,1012.04
2019-02-21T07:14:39.854Z,1012.03
2019-02-21T07:15:39.877Z,1012.02
2019-02-21T07:16:39.899Z,1011.97
2019-02-21T07:17:48.788Z,1011.98
2019-02-21T07:18:40.885Z,1011.98
2019-02-21T07:19:39.963Z,1011.96
2019-02-21T07:20:39.984Z,1011.98
2019-02-21T07:21:40.008Z,1012.00
2019-02-21T07:22:40.024Z,1011.98
2019-02-21T07:23:43.584Z,1011.95
2019-02-21T07:24:40.068Z,1011.93
2019-02-21T07:25:40.095Z,1011.97
2019-02-21T07:26:42.691Z,1011.92
2019-02-21T07:27:40.134Z,1011.88
2019-02-21T07:28:41.697Z,1011.90
2019-02-21T07:29:42.433Z,1011.89
2019-02-21T07:30:40.203Z,1011.89
2019-02-21T07:31:40.215Z,1011.90
2019-02-21T07:32:40.233Z,1011.83
2019-02-21T07:33:40.256Z,1011.81
2019-02-21T07:34:40.278Z,1011.85
2019-02-21T07:35:40.307Z,1011.84
2019-02-21T07:36:40.320Z,1011.77
2019-02-21T07:37:42.276Z,1011.80
2019-02-21T07:38:40.421Z,1011.76
2019-02-21T07:39:40.386Z,1011.77
2019-02-21T07:40:40.406Z,1011.74
2019-02-21T07:41:41.671Z,1011.70
2019-02-21T07:42:40.456Z,1011.73
2019-02-21T07:43:40.475Z,1011.72
2019-02-21T07:44:40.488Z,1011.72
2019-02-21T07:45:40.517Z,1011.70
2019-02-21T07:46:40.536Z,1011.71
2019-02-21T07:47:40.552Z,1011.70
2019-02-21T07:48:40.574Z,1011.68
2019-02-21T07:49:40.592Z,1011.68
2019-02-21T07:50:40.616Z,1011.67
2019-02-21T07:51:41.572Z,1011.66
2019-02-21T07:52:40.653Z,1011.63
2019-02-21T07:53:40.691Z,1011.66
2019-02-21T07:54:40.707Z,1011.60
2019-02-21T07:55:40.719Z,1011.61
2019-02-21T07:56:42.315Z,1011.67
2019-02-21T07:57:40.765Z,1011.62
2019-02-21T07:58:40.793Z,1011.59
2019-02-21T07:59:40.813Z,1011.55
2019-02-21T08:00:40.827Z,1011.63
2019-02-21T08:01:40.861Z,1011.57
2019-02-21T08:02:40.864Z,1011.59
2019-02-21T08:03:44.253Z,1011.60
2019-02-21T08:04:40.913Z,1011.60
2019-02-21T08:05:40.942Z,1011.61
2019-02-21T08:06:41.116Z,1011.63
2019-02-21T08:07:40.980Z,1011.58
2019-02-21T08:08:40.989Z,1011.60
2019-02-21T08:09:41.735Z,1011.58
2019-02-21T08:10:41.040Z,1011.60
2019-02-21T08:11:41.056Z,1011.62
2019-02-21T08:12:41.074Z,1011.62
2019-02-21T08:13:41.104Z,1011.57
2019-02-21T08:14:43.345Z,1011.56
2019-02-21T08:15:41.143Z,1011.55
2019-02-21T08:16:41.158Z,1011.52
2019-02-21T08:17:41.182Z,1011.56
2019-02-21T08:18:41.209Z,1011.58
2019-02-21T08:19:41.224Z,1011.59
2019-02-21T08:20:41.355Z,1011.56
2019-02-21T08:21:43.467Z,1011.60
2019-02-21T08:22:41.300Z,1011.55
2019-02-21T08:23:50.131Z,1011.56
2019-02-21T08:24:41.331Z,1011.52
2019-02-21T08:25:41.347Z,1011.48
2019-02-21T08:26:41.367Z,1011.49
2019-02-21T08:27:42.561Z,1011.48
2019-02-21T08:28:41.432Z,1011.47
2019-02-21T08:29:41.445Z,1011.44
2019-02-21T08:30:41.449Z,1011.42
2019-02-21T08:31:41.472Z,1011.42
2019-02-21T08:32:41.494Z,1011.42
2019-02-21T08:33:41.519Z,1011.41
2019-02-21T08:34:41.536Z,1011.44
2019-02-21T08:35:41.565Z,1011.45
2019-02-21T08:36:41.574Z,1011.45
2019-02-21T08:37:41.600Z,1011.41
2019-02-21T08:38:41.616Z,1011.46
2019-02-21T08:39:41.640Z,1011.45
2019-02-21T08:40:41.664Z,1011.46
2019-02-21T08:41:41.691Z,1011.49
2019-02-21T08:42:41.703Z,1011.46
2019-02-21T08:43:41.728Z,1011.45
2019-02-21T08:44:41.745Z,1011.44
2019-02-21T08:45:41.771Z,1011.43
2019-02-21T08:46:41.790Z,1011.45
2019-02-21T08:47:41.802Z,1011.41
2019-02-21T08:48:41.826Z,1011.41
2019-02-21T08:49:41.855Z,1011.42
2019-02-21T08:50:41.866Z,1011.43
2019-02-21T08:51:41.894Z,1011.39
2019-02-21T08:52:41.929Z,1011.34
2019-02-21T08:53:41.937Z,1011.35
2019-02-21T08:54:41.956Z,1011.36
2019-02-21T08:55:41.969Z,1011.35
2019-02-21T08:56:41.992Z,1011.35
2019-02-21T08:57:42.011Z,1011.34
2019-02-21T08:58:42.037Z,1011.34
2019-02-21T08:59:42.413Z,1011.36
2019-02-21T09:00:42.089Z,1011.33
2019-02-21T09:01:42.096Z,1011.32
2019-02-21T09:02:42.122Z,1011.30
2019-02-21T09:03:42.141Z,1011.30
2019-02-21T09:04:42.155Z,1011.35
2019-02-21T09:05:42.206Z,1011.30
2019-02-21T09:06:42.209Z,1011.34
2019-02-21T09:07:42.224Z,1011.31
2019-02-21T09:08:42.248Z,1011.34
2019-02-21T09:09:42.261Z,1011.33
2019-02-21T09:10:42.297Z,1011.34
2019-02-21T09:11:42.304Z,1011.34
2019-02-21T09:12:42.325Z,1011.30
2019-02-21T09:13:42.347Z,1011.31
2019-02-21T09:14:42.372Z,1011.32
2019-02-21T09:15:42.391Z,1011.29
2019-02-21T09:16:42.407Z,1011.33
2019-02-21T09:17:42.434Z,1011.40
2019-02-21T09:18:42.451Z,1011.44
2019-02-21T09:19:42.485Z,1011.35
2019-02-21T09:20:42.499Z,1011.42
2019-02-21T09:21:42.515Z,1011.37
2019-02-21T09:22:42.534Z,1011.39
2019-02-21T09:23:42.559Z,1011.39
2019-02-21T09:24:42.711Z,1011.37
2019-02-21T09:25:42.606Z,1011.42
2019-02-21T09:26:42.620Z,1011.46
2019-02-21T09:27:42.657Z,1011.46
2019-02-21T09:28:42.751Z,1011.48
2019-02-21T09:29:42.680Z,1011.50
2019-02-21T09:30:42.708Z,1011.47
2019-02-21T09:31:42.724Z,1011.45
2019-02-21T09:32:42.745Z,1011.46
2019-02-21T09:33:43.809Z,1011.52
2019-02-21T09:34:42.796Z,1011.53
2019-02-21T09:35:42.814Z,1011.54
2019-02-21T09:36:42.830Z,1011.56
2019-02-21T09:37:42.847Z,1011.57
2019-02-21T09:38:42.870Z,1011.59
2019-02-21T09:39:42.895Z,1011.56
2019-02-21T09:40:42.914Z,1011.54
2019-02-21T09:41:42.934Z,1011.55
2019-02-21T09:42:42.956Z,1011.56
2019-02-21T09:43:42.972Z,1011.56
2019-02-21T09:44:42.998Z,1011.55
2019-02-21T09:45:43.076Z,1011.55
2019-02-21T09:46:43.079Z,1011.58
2019-02-21T09:47:43.056Z,1011.55
2019-02-21T09:48:43.078Z,1011.56
2019-02-21T09:49:43.093Z,1011.61
2019-02-21T09:50:43.115Z,1011.61
2019-02-21T09:51:43.135Z,1011.65
2019-02-21T09:52:43.158Z,1011.68
2019-02-21T09:53:43.179Z,1011.67
2019-02-21T09:54:43.211Z,1011.70
2019-02-21T09:55:43.230Z,1011.69
2019-02-21T09:56:52.442Z,1011.71
2019-02-21T09:57:43.268Z,1011.75
2019-02-21T09:58:45.812Z,1011.73
2019-02-21T09:59:43.304Z,1011.76
2019-02-21T10:00:43.321Z,1011.81
2019-02-21T10:01:43.349Z,1011.79
2019-02-21T10:02:43.371Z,1011.82
2019-02-21T10:03:44.256Z,1011.83
2019-02-21T10:04:43.409Z,1011.81
2019-02-21T10:05:43.427Z,1011.84
2019-02-21T10:06:43.453Z,1011.88
2019-02-21T10:07:43.467Z,1011.87
2019-02-21T10:08:43.494Z,1011.93
2019-02-21T10:09:43.520Z,1011.92
2019-02-21T10:10:43.535Z,1011.94
2019-02-21T10:11:43.548Z,1011.97
2019-02-21T10:12:43.567Z,1011.99
2019-02-21T10:13:43.622Z,1011.95
2019-02-21T10:14:43.617Z,1011.98
2019-02-21T10:15:43.640Z,1012.01
2019-02-21T10:16:43.652Z,1012.02
2019-02-21T10:17:43.674Z,1012.01
2019-02-21T10:18:43.736Z,1012.00
2019-02-21T10:19:43.714Z,1011.96
2019-02-21T10:20:43.744Z,1011.96
2019-02-21T10:21:43.752Z,1011.98
2019-02-21T10:22:43.853Z,1012.06
2019-02-21T10:23:43.793Z,1011.98
2019-02-21T10:24:43.817Z,1012.00
2019-02-21T10:25:43.836Z,1012.01
2019-02-21T10:26:43.858Z,1012.01
2019-02-21T10:27:43.882Z,1012.02
2019-02-21T10:28:45.202Z,1012.04
2019-02-21T10:29:43.919Z,1011.98
2019-02-21T10:30:43.939Z,1012.05
2019-02-21T10:31:43.957Z,1012.08
2019-02-21T10:32:43.972Z,1012.08
2019-02-21T10:33:47.089Z,1012.15
2019-02-21T10:34:44.013Z,1012.16
2019-02-21T10:35:44.032Z,1012.15
2019-02-21T10:36:44.058Z,1012.19
2019-02-21T10:37:44.083Z,1012.17
2019-02-21T10:38:44.103Z,1012.14
2019-02-21T10:39:44.120Z,1012.14
2019-02-21T10:40:44.132Z,1012.17
2019-02-21T10:41:44.157Z,1012.14
2019-02-21T10:42:44.173Z,1012.16
2019-02-21T10:43:44.192Z,1012.18
2019-02-21T10:44:44.222Z,1012.23
2019-02-21T10:45:48.001Z,1012.23
2019-02-21T10:46:44.333Z,1012.28
2019-02-21T10:47:44.273Z,1012.30
2019-02-21T10:48:44.311Z,1012.29
2019-02-21T10:49:44.308Z,1012.32
2019-02-21T10:50:44.338Z,1012.34
2019-02-21T10:51:44.356Z,1012.29
2019-02-21T10:52:44.373Z,1012.31
2019-02-21T10:53:44.389Z,1012.33
2019-02-21T10:54:44.408Z,1012.33
2019-02-21T10:55:44.427Z,1012.39
2019-02-21T10:56:44.452Z,1012.34
2019-02-21T10:57:45.454Z,1012.39
2019-02-21T10:58:44.495Z,1012.39
2019-02-21T10:59:46.907Z,1012.35
2019-02-21T11:00:44.529Z,1012.36
2019-02-21T11:01:44.556Z,1012.42
2019-02-21T11:02:44.574Z,1012.41
2019-02-21T11:03:44.588Z,1012.47
2019-02-21T11:04:54.393Z,1012.50
2019-02-21T11:05:44.635Z,1012.44
2019-02-21T11:06:44.653Z,1012.48
2019-02-21T11:07:44.666Z,1012.52
2019-02-21T11:08:44.694Z,1012.54
2019-02-21T11:09:44.705Z,1012.53
2019-02-21T11:10:44.731Z,1012.58
2019-02-21T11:11:44.759Z,1012.56
2019-02-21T11:12:44.765Z,1012.62
2019-02-21T11:13:44.779Z,1012.59
2019-02-21T11:14:47.519Z,1012.55
2019-02-21T11:15:44.818Z,1012.62
2019-02-21T11:16:44.835Z,1012.63
2019-02-21T11:17:44.858Z,1012.72
2019-02-21T11:18:44.876Z,1012.67
2019-02-21T11:19:44.898Z,1012.69
2019-02-21T11:20:44.923Z,1012.63
2019-02-21T11:21:44.944Z,1012.68
2019-02-21T11:22:44.961Z,1012.65
2019-02-21T11:23:44.983Z,1012.73
2019-02-21T11:24:44.995Z,1012.69
2019-02-21T11:25:45.016Z,1012.77
2019-02-21T11:26:45.030Z,1012.77
2019-02-21T11:27:45.114Z,1012.77
2019-02-21T11:28:47.153Z,1012.81
2019-02-21T11:29:45.087Z,1012.85
2019-02-21T11:30:45.110Z,1012.82
2019-02-21T11:31:45.130Z,1012.84
2019-02-21T11:32:45.149Z,1012.82
2019-02-21T11:33:45.163Z,1012.85
2019-02-21T11:34:45.192Z,1012.87
2019-02-21T11:35:45.214Z,1012.84
2019-02-21T11:36:45.220Z,1012.82
2019-02-21T11:37:47.137Z,1012.87
2019-02-21T11:38:45.259Z,1012.88
2019-02-21T11:39:45.303Z,1012.86
2019-02-21T11:40:45.297Z,1012.85
2019-02-21T11:41:45.318Z,1012.89
2019-02-21T11:42:45.338Z,1012.87
2019-02-21T11:43:45.362Z,1012.87
2019-02-21T11:44:45.380Z,1012.92
2019-02-21T11:45:53.497Z,1012.88
2019-02-21T11:46:45.413Z,1012.90
2019-02-21T11:47:45.456Z,1012.89
2019-02-21T11:48:45.459Z,1012.93
2019-02-21T11:49:45.477Z,1012.96
2019-02-21T11:50:45.492Z,1012.90
2019-02-21T11:51:45.509Z,1012.90
2019-02-21T11:52:45.530Z,1012.91
2019-02-21T11:53:45.549Z,1012.92
2019-02-21T11:54:45.566Z,1012.92
2019-02-21T11:55:45.625Z,1012.96
2019-02-21T11:56:45.602Z,1013.00
2019-02-21T11:57:45.628Z,1012.97
2019-02-21T11:58:45.648Z,1013.00
2019-02-21T11:59:45.670Z,1013.00
2019-02-21T12:00:45.685Z,1013.01
2019-02-21T12:01:45.697Z,1013.01
2019-02-21T12:02:45.733Z,1013.04
2019-02-21T12:03:45.757Z,1013.03
2019-02-21T12:04:45.799Z,1013.04
2019-02-21T12:05:45.777Z,1013.08